createdAt,value
2018-12-31T00:01:35.255Z,9.93
2018-12-31T00:07:30.250Z,10.01
2018-12-31T00:13:25.226Z,9.72
2018-12-31T00:19:20.240Z,6.1
2018-12-31T00:25:15.235Z,8.51
2018-12-31T00:31:10.223Z,13.47
2018-12-31T00:37:05.270Z,9.92
2018-12-31T00:43:00.256Z,9.73
2018-12-31T00:48:55.235Z,12.69
2018-12-31T00:54:50.236Z,11.51
2018-12-31T01:00:45.217Z,11.66
2018-12-31T01:06:40.247Z,10.64
2018-12-31T01:12:35.264Z,7.91
2018-12-31T01:18:30.231Z,8.35
2018-12-31T01:24:25.271Z,5.69
2018-12-31T01:30:20.241Z,12.19
2018-12-31T01:36:15.232Z,20.51
2018-12-31T01:42:10.232Z,24.51
2018-12-31T01:48:05.252Z,24.83
2018-12-31T01:54:00.239Z,29.57
2018-12-31T01:59:55.250Z,20.05
2018-12-31T02:05:50.269Z,28.41
2018-12-31T02:11:45.283Z,20.74
2018-12-31T02:17:40.277Z,24.66
2018-12-31T02:23:35.265Z,21.66
2018-12-31T02:29:30.249Z,21.06
2018-12-31T02:35:25.240Z,19.7
2018-12-31T02:41:20.279Z,17.72
2018-12-31T02:47:15.302Z,10.79
2018-12-31T02:53:10.255Z,9.01
2018-12-31T02:59:05.247Z,5.79
2018-12-31T03:05:00.370Z,18.91
2018-12-31T03:10:55.295Z,20.83
2018-12-31T03:16:50.267Z,20.03
2018-12-31T03:22:45.297Z,14.94
2018-12-31T03:28:40.280Z,11.83
2018-12-31T03:34:35.267Z,6.58
2018-12-31T03:40:30.253Z,3.98
2018-12-31T03:46:25.289Z,3.71
2018-12-31T03:52:20.362Z,6.92
2018-12-31T03:58:15.286Z,4.77
2018-12-31T04:04:10.313Z,4.29
2018-12-31T04:10:05.298Z,4.79
2018-12-31T04:16:00.279Z,6.29
2018-12-31T04:21:55.305Z,3.07
2018-12-31T04:27:50.313Z,5.12
2018-12-31T04:33:45.311Z,4.36
2018-12-31T04:39:40.279Z,11.35
2018-12-31T04:45:35.301Z,8.89
2018-12-31T04:51:30.301Z,12.32
2018-12-31T04:57:25.298Z,13.89
2018-12-31T05:03:20.291Z,10.64
2018-12-31T05:09:15.289Z,7.23
2018-12-31T05:15:10.296Z,9.5
2018-12-31T05:21:05.288Z,12.92
2018-12-31T05:27:00.282Z,13.97
2018-12-31T05:32:55.305Z,11.33
2018-12-31T05:38:50.284Z,16.18
2018-12-31T05:44:45.330Z,13.95
2018-12-31T05:50:40.293Z,12.64
2018-12-31T05:56:35.298Z,11.51
2018-12-31T06:02:30.356Z,9.78
2018-12-31T06:08:25.293Z,13.1
2018-12-31T06:14:20.329Z,14.85
2018-12-31T06:20:15.316Z,16.62
2018-12-31T06:26:10.298Z,13.25
2018-12-31T06:32:05.291Z,11.78
2018-12-31T06:38:00.339Z,9.8
2018-12-31T06:43:55.282Z,14.28
2018-12-31T06:49:50.319Z,15.4
2018-12-31T06:55:45.292Z,13.53
2018-12-31T07:01:40.321Z,8.27
2018-12-31T07:07:35.309Z,6.71
2018-12-31T07:13:30.317Z,10.84
2018-12-31T07:19:25.309Z,5.94
2018-12-31T07:25:20.301Z,5.7
2018-12-31T07:31:15.312Z,6.11
2018-12-31T07:37:10.330Z,9.09
2018-12-31T07:43:05.333Z,8.62
2018-12-31T07:49:00.334Z,12.63
2018-12-31T07:54:55.339Z,12.09
2018-12-31T08:00:50.317Z,13.62
2018-12-31T08:06:45.329Z,15.26
2018-12-31T08:12:40.325Z,14.87
2018-12-31T08:18:35.353Z,20.85
2018-12-31T08:24:30.335Z,17.69
2018-12-31T08:30:25.384Z,20.48
2018-12-31T08:36:21.750Z,13.46
2018-12-31T08:42:15.321Z,10.76
2018-12-31T08:48:10.382Z,18.1
2018-12-31T08:54:05.325Z,16.29
2018-12-31T09:00:00.385Z,17.44
2018-12-31T09:05:55.335Z,9.59
2018-12-31T09:11:50.364Z,15.08
2018-12-31T09:17:45.324Z,23.81
2018-12-31T09:23:40.354Z,31.38
2018-12-31T09:29:35.390Z,42.68
2018-12-31T09:35:30.344Z,31.69
2018-12-31T09:41:25.367Z,30.2
2018-12-31T09:47:20.382Z,30
2018-12-31T09:53:15.361Z,43.47
2018-12-31T09:59:10.345Z,32.05
2018-12-31T10:05:05.385Z,35.23
2018-12-31T10:11:00.345Z,34.26
2018-12-31T10:16:55.338Z,36.93
2018-12-31T10:22:50.342Z,39.08
2018-12-31T10:28:45.379Z,37.67
2018-12-31T10:34:40.358Z,34.03
2018-12-31T10:40:35.375Z,33.03
2018-12-31T10:46:30.396Z,35.33
2018-12-31T10:52:25.363Z,31.47
2018-12-31T10:58:20.378Z,37.91
2018-12-31T11:04:15.369Z,41.2
2018-12-31T11:10:10.420Z,45.83
2018-12-31T11:16:05.392Z,35.84
2018-12-31T11:22:00.366Z,35.01
2018-12-31T11:27:55.374Z,38.69
2018-12-31T11:33:50.387Z,41.97
2018-12-31T11:39:45.383Z,46.96
2018-12-31T11:45:40.369Z,40.87
2018-12-31T11:51:35.372Z,38.08
2018-12-31T11:57:30.372Z,35.88
2018-12-31T12:03:25.381Z,31.41
2018-12-31T12:09:20.377Z,30.6
2018-12-31T12:15:15.377Z,35.9
2018-12-31T12:21:10.390Z,29.91
2018-12-31T12:27:05.371Z,29.67
2018-12-31T12:33:00.381Z,26.09
2018-12-31T12:38:56.110Z,23.76
2018-12-31T12:44:50.392Z,22.33
2018-12-31T12:50:45.376Z,26.5
2018-12-31T12:56:40.380Z,21.16
2018-12-31T13:02:35.389Z,24.02
2018-12-31T13:08:30.420Z,22.83
2018-12-31T13:14:25.504Z,31.42
2018-12-31T13:20:20.390Z,26.92
2018-12-31T13:26:15.389Z,27.67
2018-12-31T13:32:10.400Z,26.34
2018-12-31T13:38:05.392Z,28.2
2018-12-31T13:44:00.416Z,34.83
2018-12-31T13:49:55.406Z,32.73
2018-12-31T13:55:50.420Z,30.92
2018-12-31T14:01:45.388Z,32.2
2018-12-31T14:07:40.409Z,28.57
2018-12-31T14:13:35.397Z,25.51
2018-12-31T14:19:30.399Z,48.6
2018-12-31T14:25:25.427Z,26.93
2018-12-31T14:31:20.404Z,19.08
2018-12-31T14:37:15.398Z,27.25
2018-12-31T14:43:10.456Z,24.02
2018-12-31T14:49:05.448Z,26.83
2018-12-31T14:55:00.440Z,31.82
2018-12-31T15:00:55.420Z,48.6
2018-12-31T15:06:50.438Z,44.86
2018-12-31T15:12:45.399Z,58.48
2018-12-31T15:18:40.466Z,41.72
2018-12-31T15:24:35.414Z,28.56
2018-12-31T15:30:30.430Z,53.77
2018-12-31T15:36:25.412Z,51.74
2018-12-31T15:42:20.427Z,37.78
2018-12-31T15:48:15.462Z,29.71
2018-12-31T15:54:10.415Z,31
2018-12-31T16:00:05.426Z,32.07
2018-12-31T16:06:00.409Z,25.98
2018-12-31T16:11:55.421Z,32.43
2018-12-31T16:17:50.413Z,20.38
2018-12-31T16:23:45.425Z,18.37
2018-12-31T16:29:40.463Z,43.51
2018-12-31T16:35:35.435Z,78.17
2018-12-31T16:41:30.433Z,105.21
2018-12-31T16:47:25.454Z,47
2018-12-31T16:53:20.478Z,23.77
2018-12-31T16:59:15.420Z,36.47
2018-12-31T17:05:10.484Z,33.52
2018-12-31T17:11:05.444Z,45.78
2018-12-31T17:17:00.424Z,47.06
2018-12-31T17:22:55.444Z,20.78
2018-12-31T17:28:50.436Z,18.32
2018-12-31T17:34:45.434Z,22.1
2018-12-31T17:40:40.470Z,18.9
2018-12-31T17:46:35.425Z,29.08
2018-12-31T17:52:30.438Z,27.77
2018-12-31T17:58:25.456Z,20.03
2018-12-31T18:04:20.445Z,79.95
2018-12-31T18:10:15.449Z,72.99
2018-12-31T18:16:10.471Z,45.97
2018-12-31T18:22:05.508Z,49.77
2018-12-31T18:28:00.445Z,41.69
2018-12-31T18:33:55.458Z,36.51
2018-12-31T18:39:50.523Z,30.54
2018-12-31T18:45:45.474Z,21.28
2018-12-31T18:51:40.496Z,24.7
2018-12-31T18:57:35.450Z,37.13
2018-12-31T19:03:30.461Z,34.87
2018-12-31T19:09:25.519Z,29.42
2018-12-31T19:15:20.461Z,26.84
2018-12-31T19:21:15.462Z,24.04
2018-12-31T19:27:10.501Z,19.55
2018-12-31T19:33:05.457Z,22.63
2018-12-31T19:39:00.479Z,27.19
2018-12-31T19:44:55.501Z,28.77
2018-12-31T19:50:50.481Z,26.39
2018-12-31T19:56:45.480Z,23.36
2018-12-31T20:02:40.519Z,21.75
2018-12-31T20:08:35.446Z,23.87
2018-12-31T20:14:30.479Z,23.62
2018-12-31T20:20:25.489Z,32.34
2018-12-31T20:26:20.479Z,30.63
2018-12-31T20:32:15.520Z,32.98
2018-12-31T20:38:10.469Z,22.68
2018-12-31T20:44:05.478Z,23.15
2018-12-31T20:50:00.496Z,24.64
2018-12-31T20:55:55.535Z,47.86
2018-12-31T21:01:50.547Z,58.18
2018-12-31T21:07:45.500Z,53.1
2018-12-31T21:13:40.529Z,45.87
2018-12-31T21:19:35.563Z,30.31
2018-12-31T21:25:30.500Z,28.91
2018-12-31T21:31:25.489Z,24.09
2018-12-31T21:37:20.510Z,27.38
2018-12-31T21:43:15.549Z,24.97
2018-12-31T21:49:10.518Z,25.63
2018-12-31T21:55:05.493Z,20.37
2018-12-31T22:01:00.534Z,29.84
2018-12-31T22:06:55.508Z,25.54
2018-12-31T22:12:50.548Z,25.17
2018-12-31T22:18:45.550Z,28.7
2018-12-31T22:24:40.520Z,34.39
2018-12-31T22:30:35.504Z,25.22
2018-12-31T22:36:30.512Z,25.64
2018-12-31T22:42:25.490Z,32.04
2018-12-31T22:48:20.515Z,36.35
2018-12-31T22:54:15.545Z,46.12
2018-12-31T23:00:10.495Z,24.97
2018-12-31T23:06:05.539Z,28.72
2018-12-31T23:12:00.544Z,28.62
2018-12-31T23:17:55.524Z,51.58
2018-12-31T23:23:50.526Z,63.18
2018-12-31T23:29:45.541Z,65.5
2018-12-31T23:35:40.514Z,57.06
2018-12-31T23:41:35.554Z,52.92
2018-12-31T23:47:30.523Z,48.48
2018-12-31T23:53:25.538Z,40.49
2018-12-31T23:59:20.514Z,52.87
